createdAt,value
2022-07-30T00:02:12.931Z,23.24
2022-07-30T00:04:42.299Z,23.30
2022-07-30T00:07:11.231Z,23.25
2022-07-30T00:09:39.350Z,23.28
2022-07-30T00:12:08.021Z,23.25
2022-07-30T00:14:36.959Z,23.21
2022-07-30T00:17:05.946Z,23.19
2022-07-30T00:19:35.536Z,23.05
2022-07-30T00:22:05.485Z,23.06
2022-07-30T00:24:33.574Z,23.03
2022-07-30T00:27:01.825Z,22.97
2022-07-30T00:29:30.941Z,22.96
2022-07-30T00:31:59.809Z,22.96
2022-07-30T00:34:27.917Z,22.88
2022-07-30T00:36:55.947Z,22.90
2022-07-30T00:39:25.354Z,22.87
2022-07-30T00:41:58.852Z,22.83
2022-07-30T00:44:27.496Z,22.81
2022-07-30T00:46:56.178Z,22.70
2022-07-30T00:49:24.944Z,22.71
2022-07-30T00:51:53.418Z,22.63
2022-07-30T00:54:22.315Z,22.59
2022-07-30T00:56:51.955Z,22.54
2022-07-30T00:59:19.959Z,22.46
2022-07-30T01:01:48.190Z,22.50
2022-07-30T01:04:16.246Z,22.49
2022-07-30T01:06:44.350Z,22.25
2022-07-30T01:09:12.413Z,22.31
2022-07-30T01:11:42.297Z,22.35
2022-07-30T01:14:11.697Z,22.18
2022-07-30T01:16:42.931Z,22.25
2022-07-30T01:19:34.649Z,22.27
2022-07-30T01:22:11.876Z,22.27
2022-07-30T01:24:44.280Z,22.26
2022-07-30T01:27:19.638Z,22.24
2022-07-30T01:29:50.061Z,22.28
2022-07-30T01:32:20.890Z,22.23
2022-07-30T01:34:51.024Z,22.18
2022-07-30T01:37:20.394Z,22.15
2022-07-30T01:39:49.872Z,22.09
2022-07-30T01:42:21.683Z,22.02
2022-07-30T01:44:51.080Z,21.97
2022-07-30T01:47:21.117Z,21.86
2022-07-30T01:49:50.970Z,21.91
2022-07-30T01:52:19.867Z,21.94
2022-07-30T01:54:51.587Z,22.01
2022-07-30T01:57:22.537Z,22.01
2022-07-30T01:59:56.620Z,21.98
2022-07-30T02:02:24.837Z,21.97
2022-07-30T02:04:52.894Z,21.97
2022-07-30T02:07:26.010Z,22.01
2022-07-30T02:09:59.442Z,22.08
2022-07-30T02:12:29.779Z,22.15
2022-07-30T02:15:12.031Z,22.06
2022-07-30T02:17:45.103Z,22.07
2022-07-30T02:20:15.706Z,22.08
2022-07-30T02:22:47.640Z,22.13
2022-07-30T02:25:21.446Z,22.20
2022-07-30T02:27:55.068Z,22.16
2022-07-30T02:30:24.529Z,22.08
2022-07-30T02:32:52.800Z,22.06
2022-07-30T02:35:25.059Z,22.06
2022-07-30T02:37:55.706Z,21.83
2022-07-30T02:40:25.161Z,21.82
2022-07-30T02:42:55.458Z,21.81
2022-07-30T02:45:25.640Z,21.88
2022-07-30T02:47:57.448Z,21.79
2022-07-30T02:50:27.131Z,21.78
2022-07-30T02:52:56.211Z,21.80
2022-07-30T02:55:25.557Z,21.68
2022-07-30T02:57:56.407Z,21.56
2022-07-30T03:00:25.521Z,21.59
2022-07-30T03:02:56.677Z,21.71
2022-07-30T03:05:25.918Z,21.63
2022-07-30T03:07:55.369Z,21.53
2022-07-30T03:10:23.985Z,21.53
2022-07-30T03:12:52.658Z,21.53
2022-07-30T03:15:22.237Z,21.49
2022-07-30T03:17:53.681Z,21.37
2022-07-30T03:20:28.573Z,21.40
2022-07-30T03:22:59.746Z,21.41
2022-07-30T03:25:29.773Z,21.40
2022-07-30T03:28:00.514Z,21.40
2022-07-30T03:30:30.984Z,21.38
2022-07-30T03:32:59.371Z,21.37
2022-07-30T03:35:31.278Z,21.33
2022-07-30T03:38:01.175Z,21.26
2022-07-30T03:40:30.597Z,21.36
2022-07-30T03:42:59.544Z,21.35
2022-07-30T03:45:29.259Z,21.38
2022-07-30T03:47:58.626Z,21.39
2022-07-30T03:50:27.214Z,21.49
2022-07-30T03:52:55.616Z,21.51
2022-07-30T03:55:24.385Z,21.56
2022-07-30T03:57:52.581Z,21.58
2022-07-30T04:00:20.717Z,21.66
2022-07-30T04:02:50.455Z,21.70
2022-07-30T04:05:18.558Z,21.77
2022-07-30T04:07:47.742Z,21.87
2022-07-30T04:10:16.655Z,21.95
2022-07-30T04:12:44.758Z,22.06
2022-07-30T04:16:37.361Z,22.21
2022-07-30T04:18:05.751Z,22.32
2022-07-30T04:20:39.396Z,22.53
2022-07-30T04:23:08.373Z,22.70
2022-07-30T04:25:36.480Z,22.87
2022-07-30T04:28:05.862Z,23.02
2022-07-30T04:30:35.061Z,23.18
2022-07-30T04:33:05.119Z,23.40
2022-07-30T04:35:51.312Z,23.58
2022-07-30T04:38:21.113Z,23.65
2022-07-30T04:40:49.530Z,23.83
2022-07-30T04:43:18.418Z,23.94
2022-07-30T04:45:46.834Z,24.15
2022-07-30T04:48:16.367Z,24.28
2022-07-30T04:50:48.096Z,24.41
2022-07-30T04:53:17.045Z,24.48
2022-07-30T04:55:49.994Z,24.68
2022-07-30T04:58:21.964Z,24.37
2022-07-30T05:00:51.903Z,24.62
2022-07-30T05:03:23.278Z,24.83
2022-07-30T05:05:57.182Z,24.92
2022-07-30T05:08:26.246Z,25.02
2022-07-30T05:10:54.338Z,25.31
2022-07-30T05:13:22.488Z,25.36
2022-07-30T05:15:55.764Z,25.40
2022-07-30T05:18:25.204Z,25.22
2022-07-30T05:20:53.282Z,25.41
2022-07-30T05:23:21.315Z,25.71
2022-07-30T05:25:49.357Z,25.92
2022-07-30T05:28:17.376Z,26.07
2022-07-30T05:30:45.402Z,26.10
2022-07-30T05:33:15.658Z,26.45
2022-07-30T05:35:45.527Z,26.51
2022-07-30T05:38:13.688Z,26.60
2022-07-30T05:40:41.899Z,26.51
2022-07-30T05:43:10.218Z,26.74
2022-07-30T05:45:38.229Z,27.00
2022-07-30T05:48:06.830Z,27.20
2022-07-30T05:50:34.981Z,26.86
2022-07-30T05:53:04.410Z,26.88
2022-07-30T05:55:32.537Z,27.02
2022-07-30T05:58:04.413Z,27.38
2022-07-30T06:00:34.193Z,27.70
2022-07-30T06:03:02.233Z,27.86
2022-07-30T06:05:32.608Z,27.79
2022-07-30T06:08:00.711Z,27.90
2022-07-30T06:10:30.175Z,28.01
2022-07-30T06:12:58.437Z,27.94
2022-07-30T06:15:26.643Z,28.18
2022-07-30T06:17:58.268Z,28.32
2022-07-30T06:20:30.337Z,28.48
2022-07-30T06:22:58.395Z,28.45
2022-07-30T06:25:26.415Z,28.69
2022-07-30T06:27:55.790Z,28.83
2022-07-30T06:30:30.544Z,29.02
2022-07-30T06:32:59.554Z,29.20
2022-07-30T06:35:27.582Z,29.40
2022-07-30T06:38:06.104Z,29.35
2022-07-30T06:40:35.579Z,29.65
2022-07-30T06:43:05.275Z,29.80
2022-07-30T06:45:33.294Z,30.14
2022-07-30T06:48:01.651Z,29.61
2022-07-30T06:50:29.935Z,29.96
2022-07-30T06:52:57.985Z,30.01
2022-07-30T06:55:25.990Z,30.18
2022-07-30T06:57:54.017Z,30.06
2022-07-30T07:00:23.439Z,30.17
2022-07-30T07:02:51.547Z,30.09
2022-07-30T07:05:20.650Z,30.50
2022-07-30T07:07:58.262Z,30.72
2022-07-30T07:10:27.653Z,31.00
2022-07-30T07:12:55.758Z,31.55
2022-07-30T07:15:36.407Z,31.46
2022-07-30T07:18:06.610Z,31.54
2022-07-30T07:20:34.800Z,31.39
2022-07-30T07:23:09.134Z,31.46
2022-07-30T07:25:40.335Z,31.47
2022-07-30T07:28:12.459Z,31.30
2022-07-30T07:30:43.464Z,31.69
2022-07-30T07:33:12.246Z,31.97
2022-07-30T07:35:49.547Z,31.68
2022-07-30T07:38:18.918Z,32.00
2022-07-30T07:40:47.515Z,32.04
2022-07-30T07:43:15.938Z,32.24
2022-07-30T07:45:46.436Z,32.62
2022-07-30T07:48:14.830Z,32.29
2022-07-30T07:50:42.913Z,32.42
2022-07-30T07:53:10.934Z,32.48
2022-07-30T07:55:38.919Z,32.92
2022-07-30T07:58:07.077Z,32.90
2022-07-30T08:00:36.157Z,33.27
2022-07-30T08:03:05.563Z,33.03
2022-07-30T08:06:02.061Z,33.02
2022-07-30T08:08:22.142Z,33.38
2022-07-30T08:10:50.199Z,33.53
2022-07-30T08:13:52.432Z,33.62
2022-07-30T08:16:08.294Z,33.80
2022-07-30T08:18:42.003Z,33.72
2022-07-30T08:21:10.108Z,33.95
2022-07-30T08:23:42.408Z,34.26
2022-07-30T08:26:10.760Z,34.38
2022-07-30T08:28:38.777Z,34.67
2022-07-30T08:31:06.811Z,34.73
2022-07-30T08:33:35.298Z,34.35
2022-07-30T08:36:09.457Z,34.50
2022-07-30T08:38:38.250Z,34.64
2022-07-30T08:41:06.664Z,35.07
2022-07-30T08:43:36.514Z,35.41
2022-07-30T08:46:08.518Z,35.55
2022-07-30T08:48:37.402Z,35.55
2022-07-30T08:51:07.145Z,35.71
2022-07-30T08:53:35.933Z,35.85
2022-07-30T08:56:05.250Z,36.13
2022-07-30T08:58:35.428Z,35.85
2022-07-30T09:01:04.101Z,35.54
2022-07-30T09:03:32.755Z,35.84
2022-07-30T09:06:02.127Z,35.86
2022-07-30T09:08:31.943Z,35.87
2022-07-30T09:11:00.081Z,36.17
2022-07-30T09:13:29.947Z,36.50
2022-07-30T09:15:58.668Z,36.50
2022-07-30T09:18:32.188Z,36.47
2022-07-30T09:21:01.851Z,36.09
2022-07-30T09:23:31.419Z,36.23
2022-07-30T09:26:01.018Z,36.31
2022-07-30T09:28:31.719Z,36.28
2022-07-30T09:31:00.103Z,36.32
2022-07-30T09:33:37.086Z,36.51
2022-07-30T09:36:07.639Z,36.65
2022-07-30T09:38:51.701Z,36.59
2022-07-30T09:41:41.467Z,36.79
2022-07-30T09:44:09.647Z,36.87
2022-07-30T09:46:47.690Z,36.99
2022-07-30T09:49:17.910Z,37.20
2022-07-30T09:52:05.280Z,36.48
2022-07-30T09:54:51.720Z,36.24
2022-07-30T09:57:26.063Z,36.19
2022-07-30T09:59:57.476Z,36.52
2022-07-30T10:02:33.007Z,36.78
2022-07-30T10:05:24.510Z,36.59
2022-07-30T10:07:54.595Z,36.27
2022-07-30T10:10:26.161Z,36.48
2022-07-30T10:12:58.225Z,36.74
2022-07-30T10:15:29.663Z,36.99
2022-07-30T10:17:58.023Z,36.76
2022-07-30T10:20:26.971Z,36.74
2022-07-30T10:22:56.390Z,36.81
2022-07-30T10:25:28.436Z,37.04
2022-07-30T10:27:57.758Z,37.28
2022-07-30T10:30:29.271Z,37.45
2022-07-30T10:32:59.969Z,37.25
2022-07-30T10:35:34.379Z,36.74
2022-07-30T10:38:13.744Z,37.06
2022-07-30T10:40:51.506Z,37.13
2022-07-30T10:43:40.630Z,36.97
2022-07-30T10:46:19.868Z,37.23
2022-07-30T10:48:50.786Z,36.70
2022-07-30T10:51:34.591Z,36.90
2022-07-30T10:54:03.044Z,37.02
2022-07-30T10:56:32.509Z,37.42
2022-07-30T10:59:03.328Z,37.65
2022-07-30T11:02:10.036Z,37.38
2022-07-30T11:04:38.492Z,37.00
2022-07-30T11:07:30.286Z,37.25
2022-07-30T11:10:08.673Z,37.32
2022-07-30T11:12:57.569Z,37.31
2022-07-30T11:15:45.581Z,37.25
2022-07-30T11:18:16.486Z,36.81
2022-07-30T11:20:48.740Z,36.57
2022-07-30T11:23:37.186Z,36.67
2022-07-30T11:26:07.440Z,36.83
2022-07-30T11:28:39.317Z,36.91
2022-07-30T11:31:55.855Z,37.17
2022-07-30T11:34:30.795Z,37.01
2022-07-30T11:37:19.303Z,37.19
2022-07-30T11:40:11.154Z,37.31
2022-07-30T11:42:41.664Z,37.13
2022-07-30T11:45:29.852Z,37.17
2022-07-30T11:48:03.967Z,36.62
2022-07-30T11:50:35.205Z,36.57
2022-07-30T11:53:05.564Z,35.97
2022-07-30T11:55:35.458Z,35.88
2022-07-30T11:58:05.930Z,36.17
2022-07-30T12:00:38.930Z,36.37
2022-07-30T12:03:14.583Z,36.45
2022-07-30T12:05:44.137Z,36.32
2022-07-30T12:08:35.505Z,36.08
2022-07-30T12:11:02.495Z,36.15
2022-07-30T12:13:44.822Z,36.05
2022-07-30T12:16:17.798Z,36.11
2022-07-30T12:18:46.908Z,35.86
2022-07-30T12:21:16.891Z,35.81
2022-07-30T12:23:54.482Z,35.93
2022-07-30T12:26:24.701Z,35.73
2022-07-30T12:28:55.695Z,34.88
2022-07-30T12:31:25.445Z,35.56
2022-07-30T12:33:53.620Z,35.72
2022-07-30T12:36:32.600Z,35.63
2022-07-30T12:39:02.259Z,35.60
2022-07-30T12:41:43.899Z,35.52
2022-07-30T12:44:12.073Z,35.75
2022-07-30T12:46:42.461Z,35.73
2022-07-30T12:49:22.234Z,35.73
2022-07-30T12:52:00.123Z,35.71
2022-07-30T12:54:29.137Z,35.52
2022-07-30T12:56:59.614Z,35.82
2022-07-30T12:59:28.913Z,35.75
2022-07-30T13:02:00.638Z,35.71
2022-07-30T13:04:29.199Z,36.12
2022-07-30T13:07:08.303Z,36.13
2022-07-30T13:09:37.286Z,35.87
2022-07-30T13:12:05.926Z,35.66
2022-07-30T13:14:34.640Z,35.90
2022-07-30T13:17:04.849Z,35.77
2022-07-30T13:19:33.512Z,36.17
2022-07-30T13:22:01.552Z,35.67
2022-07-30T13:24:29.550Z,35.72
2022-07-30T13:26:57.769Z,35.65
2022-07-30T13:29:26.140Z,35.82
2022-07-30T13:31:54.465Z,35.81
2022-07-30T13:34:24.277Z,35.83
2022-07-30T13:36:52.441Z,35.70
2022-07-30T13:39:20.521Z,35.82
2022-07-30T13:41:48.514Z,35.76
2022-07-30T13:44:17.787Z,35.87
2022-07-30T13:46:45.790Z,35.86
2022-07-30T13:49:13.878Z,35.48
2022-07-30T13:51:43.333Z,35.65
2022-07-30T13:54:13.912Z,35.74
2022-07-30T13:56:42.299Z,35.62
2022-07-30T13:59:10.668Z,35.30
2022-07-30T14:01:39.316Z,35.36
2022-07-30T14:04:08.647Z,35.34
2022-07-30T14:06:36.855Z,35.57
2022-07-30T14:09:06.350Z,35.67
2022-07-30T14:11:34.378Z,35.68
2022-07-30T14:14:02.390Z,35.57
2022-07-30T14:16:46.074Z,35.16
2022-07-30T14:19:23.081Z,35.39
2022-07-30T14:21:53.194Z,35.20
2022-07-30T14:24:23.432Z,35.22
2022-07-30T14:26:57.377Z,35.34
2022-07-30T14:29:26.679Z,35.24
2022-07-30T14:31:55.068Z,35.51
2022-07-30T14:34:23.080Z,35.43
2022-07-30T14:36:51.104Z,35.28
2022-07-30T14:39:20.771Z,35.33
2022-07-30T14:41:53.151Z,35.20
2022-07-30T14:44:24.121Z,35.18
2022-07-30T14:46:53.054Z,35.03
2022-07-30T14:49:22.833Z,34.91
2022-07-30T14:51:52.449Z,35.03
2022-07-30T14:54:21.020Z,34.96
2022-07-30T14:56:54.866Z,34.76
2022-07-30T14:59:26.679Z,34.89
2022-07-30T15:01:55.356Z,34.97
2022-07-30T15:04:24.358Z,34.86
2022-07-30T15:06:52.568Z,35.22
2022-07-30T15:09:20.971Z,34.90
2022-07-30T15:12:08.347Z,34.80
2022-07-30T15:14:37.409Z,34.90
2022-07-30T15:17:06.154Z,34.79
2022-07-30T15:19:34.506Z,34.84
2022-07-30T15:22:03.506Z,34.55
2022-07-30T15:24:32.454Z,34.47
2022-07-30T15:27:01.894Z,34.44
2022-07-30T15:29:30.951Z,34.51
2022-07-30T15:32:01.229Z,34.34
2022-07-30T15:34:34.368Z,34.14
2022-07-30T15:37:03.166Z,34.11
2022-07-30T15:39:33.099Z,34.08
2022-07-30T15:42:03.317Z,33.94
2022-07-30T15:44:31.679Z,33.85
2022-07-30T15:47:00.581Z,33.82
2022-07-30T15:49:29.513Z,33.81
2022-07-30T15:52:00.242Z,33.90
2022-07-30T15:54:28.734Z,33.87
2022-07-30T15:57:01.337Z,33.82
2022-07-30T15:59:31.387Z,33.84
2022-07-30T16:01:59.710Z,33.77
2022-07-30T16:04:31.555Z,33.73
2022-07-30T16:07:00.787Z,33.73
2022-07-30T16:09:29.127Z,33.45
2022-07-30T16:11:57.314Z,33.57
2022-07-30T16:14:26.459Z,33.29
2022-07-30T16:16:56.042Z,33.15
2022-07-30T16:19:24.159Z,32.92
2022-07-30T16:21:52.348Z,32.43
2022-07-30T16:24:20.360Z,32.68
2022-07-30T16:26:48.403Z,32.32
2022-07-30T16:29:16.440Z,32.29
2022-07-30T16:31:44.812Z,32.14
2022-07-30T16:34:14.314Z,32.12
2022-07-30T16:36:42.386Z,31.87
2022-07-30T16:39:10.882Z,31.97
2022-07-30T16:41:38.941Z,32.04
2022-07-30T16:44:07.110Z,31.95
2022-07-30T16:46:35.163Z,31.70
2022-07-30T16:49:03.278Z,31.83
2022-07-30T16:51:33.150Z,31.95
2022-07-30T16:54:01.234Z,31.77
2022-07-30T16:56:29.227Z,31.58
2022-07-30T16:58:57.225Z,31.68
2022-07-30T17:01:25.371Z,31.48
2022-07-30T17:03:53.457Z,31.60
2022-07-30T17:06:21.483Z,31.37
2022-07-30T17:08:50.874Z,31.44
2022-07-30T17:11:46.412Z,31.32
2022-07-30T17:14:07.599Z,31.27
2022-07-30T17:16:35.666Z,31.15
2022-07-30T17:19:09.359Z,30.96
2022-07-30T17:21:39.114Z,30.97
2022-07-30T17:24:13.618Z,30.89
2022-07-30T17:26:43.437Z,31.07
2022-07-30T17:29:14.805Z,30.91
2022-07-30T17:31:44.438Z,30.59
2022-07-30T17:34:14.284Z,30.53
2022-07-30T17:36:51.697Z,30.65
2022-07-30T17:40:26.446Z,30.51
2022-07-30T17:42:11.591Z,30.46
2022-07-30T17:44:40.856Z,30.07
2022-07-30T17:47:14.674Z,30.01
2022-07-30T17:49:44.460Z,29.95
2022-07-30T17:52:12.544Z,29.83
2022-07-30T17:54:41.956Z,29.83
2022-07-30T17:57:10.780Z,29.58
2022-07-30T17:59:38.918Z,29.64
2022-07-30T18:02:07.242Z,29.84
2022-07-30T18:04:35.507Z,29.90
2022-07-30T18:07:03.676Z,29.98
2022-07-30T18:09:37.787Z,29.93
2022-07-30T18:12:09.811Z,29.93
2022-07-30T18:14:37.912Z,29.83
2022-07-30T18:17:08.229Z,29.70
2022-07-30T18:19:39.340Z,29.63
2022-07-30T18:22:09.023Z,29.51
2022-07-30T18:24:40.108Z,29.42
2022-07-30T18:27:11.652Z,29.38
2022-07-30T18:29:39.934Z,29.25
2022-07-30T18:32:08.589Z,29.35
2022-07-30T18:34:36.634Z,29.36
2022-07-30T18:37:04.870Z,29.44
2022-07-30T18:39:32.903Z,29.33
2022-07-30T18:42:02.236Z,29.24
2022-07-30T18:44:32.456Z,29.22
2022-07-30T18:47:00.643Z,29.18
2022-07-30T18:49:37.356Z,29.23
2022-07-30T18:52:07.781Z,29.06
2022-07-30T18:54:38.154Z,29.08
2022-07-30T18:57:10.049Z,28.72
2022-07-30T18:59:43.015Z,28.84
2022-07-30T19:02:11.097Z,28.82
2022-07-30T19:04:39.343Z,28.79
2022-07-30T19:07:07.631Z,28.86
2022-07-30T19:09:35.737Z,28.53
2022-07-30T19:12:04.133Z,28.35
2022-07-30T19:14:32.457Z,28.47
2022-07-30T19:17:01.848Z,28.57
2022-07-30T19:19:30.634Z,28.57
2022-07-30T19:21:58.911Z,28.51
2022-07-30T19:24:27.641Z,28.51
2022-07-30T19:26:56.244Z,28.53
2022-07-30T19:29:24.308Z,28.31
2022-07-30T19:31:52.383Z,28.18
2022-07-30T19:34:21.857Z,28.38
2022-07-30T19:36:49.899Z,28.36
2022-07-30T19:39:21.841Z,28.39
2022-07-30T19:41:51.095Z,28.34
2022-07-30T19:44:19.666Z,28.22
2022-07-30T19:46:51.430Z,28.30
2022-07-30T19:49:21.638Z,28.35
2022-07-30T19:52:10.832Z,28.39
2022-07-30T19:54:38.309Z,28.32
2022-07-30T19:57:06.358Z,28.35
2022-07-30T19:59:45.281Z,28.27
2022-07-30T20:02:15.732Z,28.06
2022-07-30T20:04:45.233Z,27.76
2022-07-30T20:07:13.792Z,27.73
2022-07-30T20:09:44.643Z,27.84
2022-07-30T20:12:17.120Z,27.90
2022-07-30T20:14:45.285Z,28.01
2022-07-30T20:17:13.482Z,27.83
2022-07-30T20:19:48.430Z,27.66
2022-07-30T20:22:17.021Z,27.55
2022-07-30T20:24:45.405Z,27.58
2022-07-30T20:27:35.534Z,27.68
2022-07-30T20:30:02.559Z,27.79
2022-07-30T20:32:30.610Z,27.75
2022-07-30T20:35:00.006Z,27.65
2022-07-30T20:37:28.008Z,27.53
2022-07-30T20:39:56.164Z,27.31
2022-07-30T20:42:24.609Z,27.38
2022-07-30T20:44:56.935Z,27.01
2022-07-30T20:47:34.243Z,27.12
2022-07-30T20:50:10.341Z,27.01
2022-07-30T20:52:40.425Z,26.95
2022-07-30T20:55:09.632Z,26.69
2022-07-30T20:57:56.849Z,26.66
2022-07-30T21:00:29.365Z,26.56
2022-07-30T21:02:58.288Z,26.57
2022-07-30T21:05:32.840Z,26.55
2022-07-30T21:08:00.907Z,26.58
2022-07-30T21:10:29.006Z,26.57
2022-07-30T21:13:03.089Z,26.52
2022-07-30T21:15:32.970Z,26.57
2022-07-30T21:18:02.104Z,26.65
2022-07-30T21:20:33.253Z,26.52
2022-07-30T21:23:05.777Z,26.58
2022-07-30T21:26:00.371Z,26.63
2022-07-30T21:28:27.540Z,26.52
2022-07-30T21:30:57.066Z,26.47
2022-07-30T21:33:30.961Z,26.25
2022-07-30T21:36:01.171Z,26.32
2022-07-30T21:38:30.449Z,26.23
2022-07-30T21:41:00.505Z,26.19
2022-07-30T21:43:30.522Z,26.09
2022-07-30T21:46:03.829Z,26.00
2022-07-30T21:48:34.686Z,26.07
2022-07-30T21:51:04.490Z,25.66
2022-07-30T21:53:45.048Z,25.52
2022-07-30T21:56:14.947Z,25.77
2022-07-30T21:58:44.108Z,25.80
2022-07-30T22:01:16.434Z,25.64
2022-07-30T22:04:01.742Z,25.48
2022-07-30T22:06:36.621Z,25.48
2022-07-30T22:09:19.170Z,25.54
2022-07-30T22:11:55.776Z,25.63
2022-07-30T22:14:25.613Z,25.61
2022-07-30T22:16:53.911Z,25.54
2022-07-30T22:19:22.702Z,25.56
2022-07-30T22:21:52.227Z,25.49
2022-07-30T22:24:29.186Z,25.50
2022-07-30T22:27:00.082Z,25.46
2022-07-30T22:29:34.598Z,25.40
2022-07-30T22:32:04.015Z,25.50
2022-07-30T22:34:32.337Z,25.44
2022-07-30T22:37:01.718Z,25.46
2022-07-30T22:39:32.133Z,25.50
2022-07-30T22:42:18.780Z,25.53
2022-07-30T22:44:48.190Z,25.54
2022-07-30T22:47:20.979Z,25.50
2022-07-30T22:49:54.874Z,25.58
2022-07-30T22:52:30.763Z,25.60
2022-07-30T22:55:09.342Z,25.56
2022-07-30T22:57:40.111Z,25.56
2022-07-30T23:00:12.406Z,25.58
2022-07-30T23:02:43.247Z,25.60
2022-07-30T23:05:11.848Z,25.59
2022-07-30T23:07:41.767Z,25.59
2022-07-30T23:10:17.835Z,25.56
2022-07-30T23:12:49.117Z,25.46
2022-07-30T23:15:17.266Z,25.47
2022-07-30T23:17:45.445Z,25.42
2022-07-30T23:20:15.895Z,25.38
2022-07-30T23:22:45.307Z,25.31
2022-07-30T23:25:15.550Z,25.21
2022-07-30T23:27:43.974Z,25.20
2022-07-30T23:30:13.089Z,25.14
2022-07-30T23:32:41.199Z,25.19
2022-07-30T23:35:11.084Z,25.15
2022-07-30T23:37:48.997Z,25.10
2022-07-30T23:40:19.641Z,25.04
2022-07-30T23:42:47.838Z,25.08
2022-07-30T23:45:16.026Z,25.05
2022-07-30T23:48:00.763Z,25.06
2022-07-30T23:52:59.932Z,25.01
2022-07-30T23:55:29.448Z,24.97
2022-07-30T23:57:58.022Z,24.91
